Time;durP1;ratioP1;P1;durP2;ratioP2;P2;SDS_P1;SDS_P2;PMS_P1;PMS_P2;Temp;Humidity;BMP_temperature;BMP_pressure;BME280_temperature;BME280_humidity;BME280_pressure;Samples;Min_cycle;Max_cycle;Signal;HPM_P1;HPM_P2
2022/10/08 00:01:55;;;;;;;21.42;5.25;;;;;;;11.44;76.77;101312.28;5075309;28;20133;-49
2022/10/08 00:04:22;;;;;;;30.40;5.65;;;;;;;11.23;76.94;101304.53;5092222;28;20044;-48
2022/10/08 00:06:49;;;;;;;28.98;5.93;;;;;;;11.39;77.74;101311.03;5092835;28;20052;-48
2022/10/08 00:09:15;;;;;;;19.30;4.90;;;;;;;11.37;77.29;101302.38;5092743;28;20052;-51
2022/10/08 00:11:43;;;;;;;22.83;4.63;;;;;;;11.36;77.19;101306.03;5092995;28;20052;-50
2022/10/08 00:14:09;;;;;;;21.15;5.95;;;;;;;11.36;77.65;101300.72;5091510;28;20044;-50
2022/10/08 00:16:39;;;;;;;19.85;5.10;;;;;;;11.29;77.29;101306.59;5092962;28;20077;-51
2022/10/08 00:19:10;;;;;;;24.85;5.47;;;;;;;11.32;77.73;101295.69;5093681;28;20110;-52
2022/10/08 00:21:39;;;;;;;21.45;4.95;;;;;;;11.24;77.33;101306.22;5096574;28;20126;-50
2022/10/08 00:24:09;;;;;;;19.48;4.70;;;;;;;11.22;77.89;101300.19;5096219;28;20440;-51
2022/10/08 00:26:37;;;;;;;17.45;4.97;;;;;;;11.27;77.91;101300.59;5096778;28;20048;-51
2022/10/08 00:29:09;;;;;;;24.08;5.10;;;;;;;11.27;77.50;101305.06;5096324;28;20489;-53
2022/10/08 00:31:39;;;;;;;22.77;5.30;;;;;;;11.24;77.29;101295.59;5096529;28;20626;-51
2022/10/08 00:34:09;;;;;;;22.92;5.45;;;;;;;11.28;77.60;101291.66;5096237;28;20068;-52
2022/10/08 00:36:37;;;;;;;18.67;4.60;;;;;;;11.23;77.24;101293.91;5096547;28;20051;-53
2022/10/08 00:39:07;;;;;;;30.08;5.03;;;;;;;11.20;77.69;101290.69;5095884;28;20048;-50
2022/10/08 00:41:37;;;;;;;17.23;4.90;;;;;;;11.13;77.52;101283.31;5096481;28;20044;-52
2022/10/08 00:44:43;;;;;;;15.60;4.28;;;;;;;11.12;77.72;101278.97;5096035;28;20040;-51
2022/10/08 00:47:34;;;;;;;23.23;4.50;;;;;;;11.17;77.76;101275.91;5095713;28;20052;-52
2022/10/08 00:50:11;;;;;;;21.67;6.38;;;;;;;11.16;78.24;101276.03;5095813;28;20056;-52
2022/10/08 00:52:46;;;;;;;29.67;5.07;;;;;;;11.11;77.66;101274.66;4972720;28;20044;-52
2022/10/08 00:55:16;;;;;;;15.52;4.55;;;;;;;11.07;78.23;101283.06;5095790;28;20123;-52
2022/10/08 00:57:43;;;;;;;19.83;4.90;;;;;;;11.02;77.98;101282.63;5095846;28;20055;-52
2022/10/08 01:00:14;;;;;;;20.05;4.55;;;;;;;11.11;77.36;101277.31;5095633;28;20450;-52
2022/10/08 01:02:40;;;;;;;22.20;4.90;;;;;;;11.11;78.39;101284.44;5094638;28;20135;-52
2022/10/08 01:05:08;;;;;;;22.83;4.78;;;;;;;11.09;78.46;101275.78;5094897;28;20028;-52
2022/10/08 01:07:46;;;;;;;23.85;5.05;;;;;;;11.07;78.48;101269.78;5095489;28;20507;-52
2022/10/08 01:10:34;;;;;;;19.50;4.53;;;;;;;10.99;78.35;101269.66;5095236;28;20494;-52
2022/10/08 01:13:18;;;;;;;22.45;4.60;;;;;;;10.93;78.64;101265.75;5095617;28;20379;-51
2022/10/08 01:16:14;;;;;;;23.88;4.60;;;;;;;10.95;78.76;101279.72;5095672;28;20055;-52
2022/10/08 01:19:20;;;;;;;24.67;4.97;;;;;;;10.84;78.58;101275.44;5094297;28;20048;-52
2022/10/08 01:22:18;;;;;;;17.20;4.95;;;;;;;10.87;78.92;101277.78;5095151;28;20101;-52
2022/10/08 01:27:44;;;;;;;16.80;4.70;;;;;;;10.93;79.15;101271.91;5095261;28;20044;-50
2022/10/08 01:30:16;;;;;;;30.52;4.93;;;;;;;10.92;78.53;101277.38;5095393;28;20040;-48
2022/10/08 01:32:47;;;;;;;;;;;;;;;10.91;78.89;101275.69;5095561;28;20134;-52
2022/10/08 01:35:20;;;;;;;25.23;5.05;;;;;;;10.93;78.81;101274.56;5095140;28;19924;-50
2022/10/08 01:37:49;;;;;;;20.60;4.63;;;;;;;10.96;79.12;101278.75;5094593;28;20466;-52
2022/10/08 01:40:19;;;;;;;20.73;5.03;;;;;;;10.98;79.51;101271.47;5093888;28;20048;-51
2022/10/08 01:42:49;;;;;;;19.35;5.00;;;;;;;10.99;79.70;101270.50;5094762;28;20044;-49
2022/10/08 01:45:23;;;;;;;25.08;5.70;;;;;;;10.93;79.49;101268.41;5095222;28;20086;-52
2022/10/08 01:47:53;;;;;;;24.73;5.22;;;;;;;10.86;80.11;101275.25;5094761;28;20074;-53
2022/10/08 01:50:27;;;;;;;22.20;5.20;;;;;;;10.88;79.94;101270.69;5094882;28;20473;-52
2022/10/08 01:53:00;;;;;;;21.58;5.20;;;;;;;10.99;79.38;101272.28;4970062;28;20052;-50
2022/10/08 01:55:34;;;;;;;24.05;5.85;;;;;;;11.04;79.76;101267.41;5094315;28;20042;-51
2022/10/08 01:58:06;;;;;;;28.48;5.93;;;;;;;11.04;79.78;101270.91;5094539;28;20464;-52
2022/10/08 02:00:36;;;;;;;24.80;6.00;;;;;;;11.03;80.10;101269.22;5094825;28;20493;-52
2022/10/08 02:03:03;;;;;;;22.42;5.88;;;;;;;11.01;80.05;101268.53;5092929;28;20101;-51
2022/10/08 02:05:34;;;;;;;22.30;6.50;;;;;;;10.98;79.58;101270.63;5094352;28;20044;-52
2022/10/08 02:08:01;;;;;;;24.67;6.70;;;;;;;10.98;79.88;101268.81;5094581;28;20048;-49
2022/10/08 02:10:29;;;;;;;23.48;6.32;;;;;;;10.96;80.15;101265.47;5094378;28;20065;-50
2022/10/08 02:12:56;;;;;;;23.15;5.53;;;;;;;10.88;80.34;101262.72;5094570;28;20054;-51
2022/10/08 02:15:36;;;;;;;22.38;5.65;;;;;;;10.91;80.45;101265.06;5094322;28;20738;-52
2022/10/08 02:18:15;;;;;;;30.75;5.93;;;;;;;10.94;80.07;101262.97;5094214;28;20047;-53
2022/10/08 02:21:07;;;;;;;21.98;6.10;;;;;;;10.92;80.63;101261.44;5093429;28;20102;-52
2022/10/08 02:23:42;;;;;;;26.00;5.57;;;;;;;10.91;80.73;101262.41;5093898;28;20044;-53
2022/10/08 02:26:13;;;;;;;22.27;6.38;;;;;;;10.95;80.43;101258.47;5093880;28;20050;-52
2022/10/08 02:28:47;;;;;;;23.60;5.50;;;;;;;10.94;80.75;101260.31;5094234;28;20044;-52
2022/10/08 02:31:28;;;;;;;23.92;5.63;;;;;;;10.90;80.46;101256.28;5094402;28;20048;-50
2022/10/08 02:36:36;;;;;;;28.60;5.90;;;;;;;11.00;80.81;101252.75;5111133;27;20375;-49
2022/10/08 02:39:04;;;;;;;25.50;6.07;;;;;;;11.01;80.92;101251.78;5110819;28;20043;-48
2022/10/08 02:41:37;;;;;;;30.00;6.35;;;;;;;10.99;80.75;101251.91;5111065;28;20052;-50
2022/10/08 02:44:09;;;;;;;26.00;6.32;;;;;;;11.04;81.13;101246.16;5101287;28;20052;-50
2022/10/08 02:46:39;;;;;;;;;;;;;;;11.00;80.98;101247.44;5111246;28;20050;-51
2022/10/08 02:49:14;;;;;;;19.70;5.82;;;;;;;11.05;81.18;101250.50;5111105;28;19969;-50
2022/10/08 02:51:48;;;;;;;20.58;5.63;;;;;;;11.07;81.06;101245.88;4984491;28;20126;-50
2022/10/08 02:54:19;;;;;;;22.92;6.35;;;;;;;11.16;80.90;101250.31;5110572;28;20447;-50
2022/10/08 02:57:00;;;;;;;25.85;5.72;;;;;;;11.26;80.10;101256.44;5110713;28;20047;-50
2022/10/08 02:59:27;;;;;;;26.13;6.03;;;;;;;11.18;80.85;101256.31;5110869;28;20054;-50
2022/10/08 03:01:58;;;;;;;37.03;6.35;;;;;;;11.12;81.10;101259.56;5110394;28;20097;-51
2022/10/08 03:04:30;;;;;;;18.50;4.93;;;;;;;11.14;80.87;101254.94;5108445;28;20069;-49
2022/10/08 03:06:58;;;;;;;;;;;;;;;11.21;80.93;101248.06;5110556;28;20493;-50
2022/10/08 03:09:31;;;;;;;23.65;5.20;;;;;;;11.25;80.64;101252.09;5110298;28;20361;-51
2022/10/08 03:11:59;;;;;;;18.27;5.20;;;;;;;11.32;80.68;101247.88;5109103;28;20405;-51
2022/10/08 03:14:26;;;;;;;15.80;4.80;;;;;;;11.22;80.85;101243.59;5110188;28;20550;-49
2022/10/08 03:16:53;;;;;;;18.65;5.03;;;;;;;11.13;81.39;101245.28;5110315;28;20052;-52
2022/10/08 03:19:20;;;;;;;21.77;4.97;;;;;;;11.21;81.29;101256.03;5109978;28;20036;-51
2022/10/08 03:21:51;;;;;;;22.88;5.15;;;;;;;11.01;82.02;101257.91;5110262;28;20074;-51
2022/10/08 03:24:18;;;;;;;23.67;5.60;;;;;;;10.92;82.78;101272.06;5109818;28;20508;-49
2022/10/08 03:26:45;;;;;;;19.42;5.03;;;;;;;11.12;82.33;101275.50;5109833;28;20440;-50
2022/10/08 03:29:12;;;;;;;21.52;4.93;;;;;;;11.23;81.66;101277.13;5110403;28;20048;-52
2022/10/08 03:31:39;;;;;;;21.02;4.85;;;;;;;11.34;80.88;101283.09;5109652;28;20036;-50
2022/10/08 03:34:05;;;;;;;18.67;4.70;;;;;;;11.41;80.71;101282.53;5110113;28;20401;-49
2022/10/08 03:36:32;;;;;;;21.25;4.50;;;;;;;11.49;80.64;101290.59;5109649;28;20477;-50
2022/10/08 03:38:59;;;;;;;18.17;4.93;;;;;;;11.56;81.17;101280.22;5109944;28;20050;-51
2022/10/08 03:41:26;;;;;;;23.40;4.30;;;;;;;11.55;81.13;101290.03;5109582;28;20069;-52
2022/10/08 03:43:52;;;;;;;31.15;6.57;;;;;;;11.50;82.22;101297.59;5109848;28;20043;-52
2022/10/08 03:46:19;;;;;;;23.92;5.13;;;;;;;11.57;82.60;101297.81;5104953;28;20474;-51
2022/10/08 03:48:48;;;;;;;15.15;4.60;;;;;;;11.48;83.35;101300.38;5096053;28;20071;-52
2022/10/08 03:51:15;;;;;;;19.85;4.50;;;;;;;11.34;83.64;101295.53;4965112;28;20538;-50
2022/10/08 03:53:43;;;;;;;16.00;4.20;;;;;;;11.50;83.14;101300.25;5095833;28;20078;-51
2022/10/08 03:56:14;;;;;;;16.48;4.30;;;;;;;11.42;83.69;101303.59;5094671;28;20036;-51
2022/10/08 03:58:41;;;;;;;25.70;4.50;;;;;;;11.49;84.19;101301.22;5094547;28;20040;-49
2022/10/08 04:01:12;;;;;;;17.90;4.45;;;;;;;11.51;84.67;101292.13;5096038;28;20394;-51
2022/10/08 04:03:38;;;;;;;23.80;3.97;;;;;;;11.61;84.59;101304.53;5094159;28;20050;-50
2022/10/08 04:06:06;;;;;;;21.30;4.45;;;;;;;11.69;85.25;101299.31;5095427;28;20044;-48
2022/10/08 04:08:33;;;;;;;24.40;4.07;;;;;;;11.69;85.66;101299.31;5095688;28;20048;-50
2022/10/08 04:11:03;;;;;;;25.05;3.88;;;;;;;11.70;86.42;101295.69;5095311;28;20093;-51
2022/10/08 04:13:31;;;;;;;22.08;4.38;;;;;;;11.62;87.44;101304.38;5095728;28;20509;-50
2022/10/08 04:16:04;;;;;;;21.13;3.85;;;;;;;11.49;89.00;101298.56;5095455;28;20096;-52
2022/10/08 04:18:31;;;;;;;27.77;3.70;;;;;;;11.59;89.48;101296.72;5095730;28;20051;-52
2022/10/08 04:20:59;;;;;;;25.92;4.28;;;;;;;11.70;89.63;101303.66;5095438;28;20386;-51
2022/10/08 04:23:27;;;;;;;20.60;4.03;;;;;;;11.68;90.29;101305.63;5095452;28;20048;-49
2022/10/08 04:25:54;;;;;;;23.45;4.55;;;;;;;11.65;91.02;101308.56;5095038;28;20089;-48
2022/10/08 04:28:22;;;;;;;20.38;4.20;;;;;;;11.57;91.67;101311.97;5094972;28;20097;-50
2022/10/08 04:31:06;;;;;;;24.20;4.78;;;;;;;11.64;93.54;101313.06;5077125;28;20085;-50
2022/10/08 04:33:34;;;;;;;24.55;4.78;;;;;;;11.55;95.00;101310.41;5095213;28;20127;-49
2022/10/08 04:36:07;;;;;;;23.45;5.43;;;;;;;11.61;95.14;101307.19;5076859;28;20048;-48
2022/10/08 04:38:34;;;;;;;21.85;4.78;;;;;;;11.53;95.63;101311.41;5094870;28;20068;-52
2022/10/08 04:41:05;;;;;;;22.80;4.55;;;;;;;11.55;96.42;101316.59;5093925;28;20048;-48
2022/10/08 04:43:33;;;;;;;17.33;4.40;;;;;;;11.34;97.77;101312.31;5095051;28;20374;-48
2022/10/08 04:46:00;;;;;;;25.35;5.10;;;;;;;11.49;97.81;101317.16;5094804;28;20048;-51
2022/10/08 04:48:28;;;;;;;19.58;4.63;;;;;;;11.51;97.40;101320.50;5095019;28;20040;-51
2022/10/08 04:50:56;;;;;;;19.88;5.60;;;;;;;11.50;98.12;101326.81;5010388;28;21065;-51
2022/10/08 04:53:24;;;;;;;17.20;4.68;;;;;;;11.54;98.23;101320.22;5061468;28;20109;-49
2022/10/08 04:55:52;;;;;;;21.08;5.50;;;;;;;11.52;97.96;101311.56;5094003;28;20430;-52
2022/10/08 04:58:20;;;;;;;18.10;5.10;;;;;;;11.41;99.11;101317.06;5094132;28;20044;-52
2022/10/08 05:00:46;;;;;;;26.42;6.15;;;;;;;11.48;98.96;101316.31;5094784;28;20048;-52
2022/10/08 05:03:13;;;;;;;15.15;5.15;;;;;;;11.50;98.95;101324.16;5094437;28;20069;-52
2022/10/08 05:05:42;;;;;;;17.95;4.80;;;;;;;11.54;98.85;101317.56;5094312;28;20048;-49
2022/10/08 05:08:09;;;;;;;13.77;4.95;;;;;;;11.53;98.85;101323.84;5094537;28;20044;-49
2022/10/08 05:10:35;;;;;;;18.98;4.90;;;;;;;11.62;98.83;101332.75;5094330;28;20052;-48
2022/10/08 05:13:03;;;;;;;18.70;4.90;;;;;;;11.52;98.84;101324.84;5092857;28;20505;-48
2022/10/08 05:15:30;;;;;;;19.30;5.00;;;;;;;11.53;99.44;101323.84;5094430;28;20032;-50
2022/10/08 05:17:56;;;;;;;22.60;5.32;;;;;;;11.68;98.40;101324.22;5094358;28;20054;-49
2022/10/08 05:20:23;;;;;;;20.08;5.30;;;;;;;11.64;98.32;101326.34;5094147;28;20040;-49
2022/10/08 05:22:50;;;;;;;18.77;5.50;;;;;;;11.57;99.17;101338.53;5094118;28;20040;-52
2022/10/08 05:25:16;;;;;;;20.00;5.15;;;;;;;11.61;99.08;101339.09;5093545;28;20093;-49
2022/10/08 05:27:43;;;;;;;17.88;5.65;;;;;;;11.60;99.24;101340.88;5094150;28;20051;-51
2022/10/08 05:30:10;;;;;;;23.52;5.57;;;;;;;11.64;98.91;101328.13;5093960;28;20152;-52
2022/10/08 05:32:37;;;;;;;20.67;5.45;;;;;;;11.64;99.50;101334.31;5094044;28;20044;-50
2022/10/08 05:35:05;;;;;;;17.27;5.25;;;;;;;11.65;98.60;101348.44;5092562;28;20383;-49
2022/10/08 05:37:32;;;;;;;22.08;5.43;;;;;;;11.50;99.86;101348.06;5093594;28;20127;-52
2022/10/08 05:39:58;;;;;;;22.40;5.78;;;;;;;11.52;100.00;101352.25;5093984;28;20052;-52
2022/10/08 05:42:25;;;;;;;16.95;6.00;;;;;;;11.63;99.06;101359.19;5093953;28;20073;-50
2022/10/08 05:44:52;;;;;;;20.25;5.22;;;;;;;11.65;99.38;101364.38;5094003;28;20044;-52
2022/10/08 05:47:18;;;;;;;14.77;5.68;;;;;;;11.71;98.64;101367.28;5093292;28;20047;-49
2022/10/08 05:49:45;;;;;;;17.60;5.40;;;;;;;11.70;98.71;101360.28;5093984;28;20051;-51
2022/10/08 05:52:12;;;;;;;19.27;6.22;;;;;;;11.69;99.80;101365.75;4960701;28;20071;-51
2022/10/08 05:54:38;;;;;;;13.18;5.65;;;;;;;11.65;99.15;101370.50;5093327;28;20093;-50
2022/10/08 05:57:05;;;;;;;17.63;5.93;;;;;;;11.72;99.09;101368.94;5093883;28;20044;-49
2022/10/08 05:59:32;;;;;;;19.35;6.25;;;;;;;11.65;99.59;101367.84;5093616;28;20048;-50
2022/10/08 06:01:59;;;;;;;19.63;6.00;;;;;;;11.61;99.62;101371.78;5093916;28;20043;-49
2022/10/08 06:04:25;;;;;;;17.05;6.55;;;;;;;11.71;99.48;101382.38;5092383;28;20486;-49
2022/10/08 06:06:52;;;;;;;20.75;6.93;;;;;;;11.76;99.30;101377.47;5093569;28;20040;-50
2022/10/08 06:09:19;;;;;;;16.15;5.93;;;;;;;11.72;98.93;101384.06;5092865;28;20066;-48
2022/10/08 06:11:48;;;;;;;21.55;6.63;;;;;;;11.78;99.18;101393.28;5093465;28;20428;-51
2022/10/08 06:14:16;;;;;;;17.25;6.50;;;;;;;11.66;99.36;101389.94;5093608;28;20101;-52
2022/10/08 06:16:43;;;;;;;21.08;6.10;;;;;;;11.75;98.99;101397.06;5093083;28;20044;-48
2022/10/08 06:19:10;;;;;;;18.15;6.38;;;;;;;11.75;99.19;101401.53;5093389;28;20494;-51
2022/10/08 06:21:37;;;;;;;18.85;6.10;;;;;;;11.66;98.98;101405.88;5092210;28;20156;-50
2022/10/08 06:24:07;;;;;;;18.42;7.15;;;;;;;11.82;98.83;101403.44;5093435;28;20102;-52
2022/10/08 06:26:37;;;;;;;17.63;7.00;;;;;;;11.80;99.54;101409.91;5092660;28;20036;-50
2022/10/08 06:29:06;;;;;;;18.70;7.57;;;;;;;11.73;98.62;101420.28;5093270;28;20297;-51
2022/10/08 06:31:34;;;;;;;17.67;7.38;;;;;;;11.81;98.64;101424.88;5093376;28;20054;-50
2022/10/08 06:34:04;;;;;;;25.45;8.55;;;;;;;11.71;99.18;101423.09;5092873;28;20039;-49
2022/10/08 06:36:33;;;;;;;21.23;8.77;;;;;;;11.71;98.89;101427.56;5092055;28;20097;-50
2022/10/08 06:39:03;;;;;;;18.52;8.25;;;;;;;11.69;100.00;101435.69;5093120;28;20052;-49
2022/10/08 06:41:32;;;;;;;22.83;8.77;;;;;;;11.70;99.66;101436.53;5091761;28;20130;-51
2022/10/08 06:43:58;;;;;;;17.33;8.48;;;;;;;11.79;100.00;101443.63;5092738;28;20040;-48
2022/10/08 06:46:25;;;;;;;21.58;9.35;;;;;;;11.81;99.93;101443.50;5093056;28;20043;-49
2022/10/08 06:48:52;;;;;;;23.83;9.85;;;;;;;11.77;99.82;101458.03;5093186;28;20032;-52
2022/10/08 06:51:19;;;;;;;27.08;9.55;;;;;;;11.77;99.67;101450.94;4967611;28;20556;-50
2022/10/08 06:53:52;;;;;;;28.15;10.32;;;;;;;11.87;99.56;101462.34;5093135;28;20155;-49
2022/10/08 06:56:19;;;;;;;22.20;10.30;;;;;;;11.88;99.25;101457.88;5092213;28;20036;-50
2022/10/08 06:58:46;;;;;;;20.95;9.20;;;;;;;11.93;99.08;101468.09;5092808;28;20466;-51
2022/10/08 07:01:19;;;;;;;28.45;10.23;;;;;;;11.95;99.12;101468.78;5092776;28;20078;-49
2022/10/08 07:03:49;;;;;;;29.63;9.75;;;;;;;11.95;99.10;101471.44;5092609;28;20131;-51
2022/10/08 07:06:16;;;;;;;28.67;10.38;;;;;;;11.92;98.82;101485.06;5091632;28;20040;-51
2022/10/08 07:08:43;;;;;;;29.52;10.90;;;;;;;11.95;98.22;101492.72;5066962;28;20544;-51
2022/10/08 07:11:14;;;;;;;23.98;11.20;;;;;;;12.03;97.53;101493.69;5062438;28;20052;-51
2022/10/08 07:13:42;;;;;;;28.17;10.53;;;;;;;12.07;97.18;101492.41;5072144;28;20047;-51
2022/10/08 07:16:11;;;;;;;26.08;11.27;;;;;;;12.05;97.41;101493.53;5072604;28;20040;-51
2022/10/08 07:18:40;;;;;;;27.38;11.05;;;;;;;12.02;98.18;101499.97;5072245;28;20064;-50
2022/10/08 07:21:09;;;;;;;29.23;12.65;;;;;;;11.99;97.67;101504.72;5072836;28;20040;-51
2022/10/08 07:23:36;;;;;;;33.20;12.38;;;;;;;12.02;97.74;101512.44;5075830;28;20037;-49
2022/10/08 07:26:06;;;;;;;33.22;13.20;;;;;;;12.09;97.39;101513.53;5075870;28;20033;-48
2022/10/08 07:28:35;;;;;;;27.80;13.20;;;;;;;12.05;98.21;101531.59;5076268;28;20069;-48
2022/10/08 07:31:06;;;;;;;32.42;12.85;;;;;;;12.04;97.33;101524.63;5076154;28;20048;-49
2022/10/08 07:33:33;;;;;;;31.30;12.43;;;;;;;12.18;97.18;101523.28;5076086;28;20040;-49
2022/10/08 07:36:18;;;;;;;30.40;12.95;;;;;;;12.18;96.59;101523.28;5075576;28;20079;-48
2022/10/08 07:38:46;;;;;;;31.23;14.60;;;;;;;12.15;96.57;101534.25;5095353;28;20123;-49
2022/10/08 07:41:13;;;;;;;32.33;14.07;;;;;;;12.17;96.97;101540.25;5096015;28;20089;-51
2022/10/08 07:43:40;;;;;;;36.80;14.63;;;;;;;12.39;96.56;101535.56;5096142;28;20044;-50
2022/10/08 07:46:10;;;;;;;37.20;14.18;;;;;;;12.41;96.01;101539.75;5095781;28;20032;-49
2022/10/08 07:48:38;;;;;;;33.47;14.57;;;;;;;12.52;95.94;101549.34;5095628;28;20582;-51
2022/10/08 07:51:15;;;;;;;28.48;14.68;;;;;;;12.64;95.67;101547.31;4977130;28;20492;-51
2022/10/08 07:53:42;;;;;;;34.88;15.52;;;;;;;12.64;94.36;101550.84;5095633;28;20414;-51
2022/10/08 07:56:11;;;;;;;38.58;15.43;;;;;;;12.61;94.18;101558.28;5095774;28;20070;-50
2022/10/08 07:58:38;;;;;;;33.92;16.02;;;;;;;12.56;94.34;101555.22;5095479;28;20529;-51
2022/10/08 08:01:07;;;;;;;33.03;14.88;;;;;;;12.47;94.34;101555.09;5096234;28;20044;-50
2022/10/08 08:03:35;;;;;;;36.75;15.85;;;;;;;12.61;93.63;101559.13;5095316;28;20093;-51
2022/10/08 08:06:08;;;;;;;34.03;14.48;;;;;;;12.76;92.25;101556.78;5095145;28;20032;-51
2022/10/08 08:08:37;;;;;;;34.55;14.80;;;;;;;12.86;91.54;101565.59;5095540;28;20401;-51
2022/10/08 08:11:05;;;;;;;30.08;15.15;;;;;;;12.98;91.01;101570.69;5095364;28;20048;-49
2022/10/08 08:13:34;;;;;;;36.15;14.65;;;;;;;13.21;90.78;101563.13;5095739;28;20074;-52
2022/10/08 08:16:06;;;;;;;33.88;13.95;;;;;;;13.19;90.88;101565.94;5095253;28;20316;-51
2022/10/08 08:18:35;;;;;;;34.58;13.98;;;;;;;13.28;89.32;101577.50;5095930;28;20052;-51
2022/10/08 08:21:05;;;;;;;33.45;13.43;;;;;;;13.27;87.95;101575.81;5095177;28;20048;-51
2022/10/08 08:23:34;;;;;;;31.52;13.43;;;;;;;13.26;88.89;101582.13;5095144;28;20382;-49
2022/10/08 08:26:03;;;;;;;29.75;13.63;;;;;;;13.55;89.69;101587.28;5094879;28;20448;-48
2022/10/08 08:28:30;;;;;;;25.90;12.85;;;;;;;13.64;86.23;101590.84;5095329;28;20135;-51
2022/10/08 08:31:14;;;;;;;35.20;12.70;;;;;;;13.61;85.90;101596.50;5095273;28;20443;-49
2022/10/08 08:33:45;;;;;;;28.13;11.93;;;;;;;13.58;86.14;101599.47;5095082;28;20044;-51
2022/10/08 08:36:12;;;;;;;29.27;10.85;;;;;;;13.39;85.24;101606.63;5094677;28;20052;-49
2022/10/08 08:38:39;;;;;;;29.20;10.60;;;;;;;13.48;85.08;101602.22;5094986;28;20048;-49
2022/10/08 08:41:19;;;;;;;29.05;11.18;;;;;;;13.44;85.27;101606.16;5094776;28;20048;-51
2022/10/08 08:43:46;;;;;;;21.77;10.15;;;;;;;13.53;84.65;101604.41;5093834;28;20150;-51
2022/10/08 08:46:17;;;;;;;23.60;10.43;;;;;;;13.59;84.01;101609.16;5093492;28;20040;-50
2022/10/08 08:48:45;;;;;;;30.88;10.80;;;;;;;13.73;83.99;101624.59;5095191;28;20040;-50
2022/10/08 08:51:12;;;;;;;23.98;10.82;;;;;;;13.81;83.26;101619.34;4966215;28;20612;-48
2022/10/08 08:53:38;;;;;;;24.08;10.63;;;;;;;13.91;84.28;101624.56;5094671;28;20425;-49
2022/10/08 08:56:10;;;;;;;28.48;11.35;;;;;;;14.06;81.66;101629.34;5094128;28;20040;-48
2022/10/08 08:58:49;;;;;;;24.98;10.15;;;;;;;14.00;80.14;101630.81;5095006;28;20044;-49
2022/10/08 09:01:38;;;;;;;26.65;10.20;;;;;;;13.87;80.31;101639.22;5094591;28;20454;-49
2022/10/08 09:04:16;;;;;;;40.47;11.20;;;;;;;13.86;81.19;101623.38;5094024;28;20125;-48
2022/10/08 09:06:44;;;;;;;28.95;11.65;;;;;;;13.79;81.47;101637.31;5094362;28;20045;-51
2022/10/08 09:09:39;;;;;;;28.33;9.60;;;;;;;13.83;80.52;101630.69;5094414;28;20533;-48
2022/10/08 09:12:17;;;;;;;26.52;9.80;;;;;;;14.13;78.68;101639.25;5084358;28;20101;-48
2022/10/08 09:14:53;;;;;;;26.50;8.82;;;;;;;14.36;77.67;101644.09;5079426;28;20067;-49
2022/10/08 09:17:28;;;;;;;26.70;8.15;;;;;;;14.29;76.81;101641.19;5073677;28;20133;-48
2022/10/08 09:19:55;;;;;;;27.33;8.15;;;;;;;14.30;77.55;101639.38;5073835;28;20044;-48
2022/10/08 09:22:26;;;;;;;23.48;8.88;;;;;;;14.46;76.85;101647.50;5074172;28;20052;-48
2022/10/08 09:24:59;;;;;;;27.67;7.75;;;;;;;14.54;75.98;101650.19;5074012;28;20128;-50
2022/10/08 09:27:43;;;;;;;24.95;6.90;;;;;;;14.59;75.34;101649.78;5073502;28;20033;-50
2022/10/08 09:35:50;;;;;;;22.58;7.18;;;;;;;14.70;74.20;101660.19;5110680;27;20387;-49
2022/10/08 09:38:36;;;;;;;21.08;7.10;;;;;;;14.55;74.57;101667.91;5110824;28;20085;-48
2022/10/08 09:41:18;;;;;;;23.50;7.15;;;;;;;14.62;72.52;101664.63;5110625;28;20043;-49
2022/10/08 09:46:48;;;;;;;28.08;7.72;;;;;;;14.48;74.60;101669.53;5110562;27;20858;-49
2022/10/08 09:49:26;;;;;;;28.42;8.38;;;;;;;14.37;75.28;101685.78;5109230;28;20044;-50
2022/10/08 09:51:54;;;;;;;26.77;8.35;;;;;;;15.99;69.96;101679.59;4986106;28;20397;-50
2022/10/08 09:54:24;;;;;;;21.33;8.13;;;;;;;16.69;66.91;101689.75;5110297;28;20050;-51
2022/10/08 09:56:56;;;;;;;19.63;7.03;;;;;;;17.99;61.23;101700.03;5110766;28;20397;-52
2022/10/08 09:59:26;;;;;;;21.60;7.30;;;;;;;19.22;57.44;101698.78;5109280;28;20047;-51
2022/10/08 10:01:52;;;;;;;18.77;6.38;;;;;;;19.51;54.75;101694.38;5110778;28;20123;-50
2022/10/08 10:04:32;;;;;;;22.30;6.20;;;;;;;20.75;50.38;101699.41;5109757;28;20075;-51
2022/10/08 10:06:59;;;;;;;19.42;6.07;;;;;;;21.61;47.81;101707.09;5109386;28;20138;-52
2022/10/08 10:09:51;;;;;;;16.85;5.47;;;;;;;18.85;53.60;101700.59;5109988;28;20166;-50
2022/10/08 10:12:41;;;;;;;16.20;5.35;;;;;;;17.60;53.57;101691.03;5110242;28;20067;-49
2022/10/08 10:15:14;;;;;;;15.40;4.30;;;;;;;16.90;56.28;101689.22;5110237;28;20047;-50
2022/10/08 10:17:51;;;;;;;15.27;4.28;;;;;;;16.45;58.21;101698.66;5110663;28;20109;-50
2022/10/08 10:20:35;;;;;;;19.33;4.88;;;;;;;18.14;55.38;101708.16;5110466;28;20052;-51
2022/10/08 10:23:23;;;;;;;14.27;4.57;;;;;;;20.13;48.47;101699.16;5110747;28;20085;-51
2022/10/08 10:25:56;;;;;;;19.50;4.60;;;;;;;20.11;46.79;101700.38;5109754;28;20039;-50
2022/10/08 10:31:07;;;;;;;17.60;4.95;;;;;;;20.11;46.61;101703.91;5110823;27;20380;-48
2022/10/08 10:33:43;;;;;;;18.67;4.45;;;;;;;22.31;43.69;101706.75;5110703;28;20113;-49
2022/10/08 10:36:15;;;;;;;21.05;4.50;;;;;;;21.38;44.72;101712.78;5110851;28;20512;-48
2022/10/08 10:38:52;;;;;;;17.80;4.72;;;;;;;19.68;48.09;101700.34;5110751;28;20485;-48
2022/10/08 10:44:02;;;;;;;12.43;3.35;;;;;;;19.45;47.16;101708.59;5110526;27;20132;-48
2022/10/08 10:46:49;;;;;;;18.90;4.18;;;;;;;17.67;49.70;101709.97;5110825;28;20439;-48
2022/10/08 10:49:20;;;;;;;17.35;3.47;;;;;;;20.93;43.53;101706.16;5110821;28;20040;-49
2022/10/08 10:52:15;;;;;;;17.95;2.67;;;;;;;22.42;39.29;101710.72;4984335;28;20489;-49
2022/10/08 10:55:04;;;;;;;13.68;2.50;;;;;;;23.10;36.46;101721.22;5110314;28;20524;-49
2022/10/08 10:57:59;;;;;;;13.98;2.95;;;;;;;23.99;35.53;101718.66;5110540;28;20047;-50
2022/10/08 11:00:31;;;;;;;13.35;2.40;;;;;;;21.34;40.56;101716.94;5110243;28;20127;-51
2022/10/08 11:03:25;;;;;;;13.38;2.38;;;;;;;21.44;40.30;101717.38;5110259;28;20063;-51
2022/10/08 11:09:18;;;;;;;18.88;2.25;;;;;;;17.68;48.89;101721.53;5070348;28;20881;-48
2022/10/08 11:11:53;;;;;;;13.10;2.40;;;;;;;17.05;51.83;101725.00;5069896;28;20040;-48
2022/10/08 11:14:59;;;;;;;11.57;2.10;;;;;;;17.97;48.95;101724.38;5070454;28;20482;-49
2022/10/08 11:17:44;;;;;;;16.73;2.35;;;;;;;18.64;48.79;101725.47;5069803;28;20041;-51
2022/10/08 11:23:44;;;;;;;14.40;2.20;;;;;;;16.86;52.85;101720.88;5110352;27;20380;-48
2022/10/08 11:26:37;;;;;;;9.23;2.15;;;;;;;17.06;52.46;101729.38;5110414;28;20047;-48
2022/10/08 11:29:32;;;;;;;10.07;2.30;;;;;;;18.88;46.32;101731.63;5110511;28;20051;-49
2022/10/08 11:32:00;;;;;;;15.85;2.03;;;;;;;19.46;41.39;101716.47;5111025;28;20050;-49
2022/10/08 11:34:33;;;;;;;10.52;1.85;;;;;;;19.60;38.56;101725.53;5110367;28;20068;-50
2022/10/08 11:37:14;;;;;;;7.50;1.90;;;;;;;20.93;37.07;101730.44;5109525;28;20050;-51
2022/10/08 11:40:06;;;;;;;9.15;1.65;;;;;;;21.08;34.54;101726.59;5110686;28;20123;-51
2022/10/08 11:42:41;;;;;;;7.88;1.70;;;;;;;20.62;35.40;101724.44;5110040;28;20047;-50
2022/10/08 11:45:32;;;;;;;10.85;1.67;;;;;;;21.03;35.37;101733.63;5110494;28;20039;-52
2022/10/08 11:48:21;;;;;;;11.23;2.22;;;;;;;20.83;36.42;101733.47;5108488;28;20572;-51
2022/10/08 11:50:47;;;;;;;12.98;2.03;;;;;;;21.11;36.45;101719.94;5066285;28;20044;-50
2022/10/08 11:53:20;;;;;;;10.77;2.25;;;;;;;21.03;37.26;101729.03;5031405;28;20039;-52
2022/10/08 11:55:49;;;;;;;;;;;;;;;20.84;37.94;101733.28;5110625;28;20054;-52
2022/10/08 11:58:22;;;;;;;11.88;2.10;;;;;;;20.15;39.31;101731.28;5110253;28;19926;-50
2022/10/08 12:00:52;;;;;;;14.25;2.33;;;;;;;20.11;39.88;101719.22;5110244;28;20044;-54
2022/10/08 12:03:30;;;;;;;11.13;2.28;;;;;;;19.82;41.29;101722.91;5109966;28;20047;-52
2022/10/08 12:06:11;;;;;;;7.82;1.80;;;;;;;19.75;41.25;101720.13;5110012;28;20143;-52